createdAt,value
2019-06-08T00:04:00.103Z,18.19
2019-06-08T00:06:35.597Z,18.12
2019-06-08T00:45:57.366Z,17.82
2019-06-08T00:48:33.055Z,17.83
2019-06-08T00:51:04.261Z,17.78
2019-06-08T00:53:38.028Z,17.70
2019-06-08T00:56:11.398Z,17.67
2019-06-08T00:58:43.383Z,17.74
2019-06-08T01:01:22.067Z,17.72
2019-06-08T01:03:52.377Z,17.73
2019-06-08T01:06:29.828Z,17.62
2019-06-08T01:09:04.765Z,17.55
2019-06-08T01:11:37.296Z,17.10
2019-06-08T01:28:02.122Z,17.12
2019-06-08T01:30:34.876Z,17.15
2019-06-08T01:33:06.687Z,17.24
2019-06-08T01:35:40.262Z,17.37
2019-06-08T01:38:13.700Z,17.55
2019-06-08T01:40:47.485Z,17.75
2019-06-08T01:43:21.855Z,17.88
2019-06-08T01:45:57.421Z,17.98
2019-06-08T01:48:32.328Z,18.05
2019-06-08T01:51:08.162Z,18.19
2019-06-08T01:53:40.654Z,18.27
2019-06-08T01:56:12.678Z,18.38
2019-06-08T01:58:44.581Z,18.48
2019-06-08T02:01:17.125Z,18.47
2019-06-08T02:03:49.990Z,18.38
2019-06-08T02:06:24.199Z,18.33
2019-06-08T02:09:00.543Z,18.10
2019-06-08T02:11:33.061Z,18.02
2019-06-08T02:14:05.615Z,17.99
2019-06-08T02:16:37.533Z,17.74
2019-06-08T02:19:10.632Z,17.78
2019-06-08T02:21:42.687Z,17.72
2019-06-08T02:24:15.874Z,17.54
2019-06-08T02:26:48.881Z,17.51
2019-06-08T02:29:21.853Z,17.40
2019-06-08T02:31:54.908Z,17.42
2019-06-08T02:34:28.301Z,17.18
2019-06-08T02:37:02.846Z,17.02
2019-06-08T02:39:35.533Z,17.10
2019-06-08T02:42:08.903Z,17.07
2019-06-08T02:44:41.767Z,16.94
2019-06-08T02:47:16.296Z,16.89
2019-06-08T02:49:47.103Z,16.91
2019-06-08T02:52:19.956Z,16.87
2019-06-08T02:54:55.073Z,16.82
2019-06-08T02:57:30.998Z,16.76
2019-06-08T03:00:04.673Z,16.72
2019-06-08T03:02:40.653Z,16.71
2019-06-08T03:05:14.486Z,16.61
2019-06-08T03:07:48.101Z,16.57
2019-06-08T03:10:22.815Z,16.60
2019-06-08T03:12:56.891Z,16.55
2019-06-08T03:15:32.407Z,16.63
2019-06-08T03:18:06.279Z,16.54
2019-06-08T03:20:40.148Z,16.44
2019-06-08T03:23:12.066Z,16.47
2019-06-08T03:25:52.641Z,16.38
2019-06-08T03:28:20.214Z,16.37
2019-06-08T03:30:55.832Z,16.39
2019-06-08T03:33:28.164Z,16.37
2019-06-08T03:36:02.212Z,16.33
2019-06-08T03:38:37.503Z,16.31
2019-06-08T03:41:10.351Z,16.37
2019-06-08T03:43:43.228Z,16.25
2019-06-08T03:46:17.351Z,16.31
2019-06-08T03:48:50.210Z,16.23
2019-06-08T03:51:24.160Z,16.21
2019-06-08T03:53:58.267Z,16.09
2019-06-08T03:56:29.488Z,16.15
2019-06-08T03:59:02.513Z,16.19
2019-06-08T04:01:37.441Z,16.18
2019-06-08T04:04:11.112Z,16.11
2019-06-08T04:06:45.600Z,16.09
2019-06-08T04:09:17.350Z,16.10
2019-06-08T04:11:51.220Z,16.07
2019-06-08T04:14:25.434Z,16.14
2019-06-08T04:16:58.432Z,16.13
2019-06-08T04:19:30.377Z,16.10
2019-06-08T04:22:02.202Z,16.03
2019-06-08T04:24:35.222Z,16.10
2019-06-08T04:27:09.306Z,16.16
2019-06-08T04:29:43.869Z,15.92
2019-06-08T04:32:15.407Z,15.85
2019-06-08T04:34:48.018Z,15.91
2019-06-08T04:37:20.334Z,16.09
2019-06-08T04:39:54.752Z,16.10
2019-06-08T04:42:26.404Z,15.94
2019-06-08T04:45:00.554Z,15.72
2019-06-08T04:47:33.628Z,15.66
2019-06-08T04:50:21.623Z,15.82
2019-06-08T04:52:40.838Z,15.71
2019-06-08T04:55:15.301Z,15.78
2019-06-08T04:57:48.810Z,15.89
2019-06-08T05:00:22.630Z,15.82
2019-06-08T05:02:54.614Z,15.92
2019-06-08T05:05:26.508Z,15.88
2019-06-08T05:07:58.525Z,15.75
2019-06-08T05:10:33.508Z,15.64
2019-06-08T05:13:07.561Z,15.58
2019-06-08T05:15:43.315Z,15.66
2019-06-08T05:18:14.716Z,15.79
2019-06-08T05:20:49.123Z,15.53
2019-06-08T05:23:22.616Z,15.51
2019-06-08T05:25:55.721Z,15.56
2019-06-08T05:28:28.825Z,15.58
2019-06-08T05:31:00.696Z,15.70
2019-06-08T05:33:36.534Z,15.66
2019-06-08T05:36:09.898Z,15.75
2019-06-08T05:38:43.912Z,15.94
2019-06-08T05:41:19.398Z,15.97
2019-06-08T05:43:51.833Z,16.05
2019-06-08T05:46:27.486Z,16.06
2019-06-08T05:49:01.092Z,15.90
2019-06-08T05:51:32.737Z,15.85
2019-06-08T05:54:06.962Z,15.88
2019-06-08T05:56:39.878Z,15.95
2019-06-08T05:59:12.953Z,16.03
2019-06-08T06:01:46.767Z,15.96
2019-06-08T06:04:20.813Z,16.07
2019-06-08T06:06:53.083Z,16.14
2019-06-08T06:09:24.760Z,16.02
2019-06-08T06:11:56.934Z,16.14
2019-06-08T06:14:29.020Z,16.14
2019-06-08T06:17:02.956Z,16.17
2019-06-08T06:19:35.124Z,16.28
2019-06-08T06:22:07.941Z,16.28
2019-06-08T06:24:43.735Z,16.43
2019-06-08T06:27:16.129Z,16.48
2019-06-08T06:29:49.959Z,16.62
2019-06-08T06:32:25.632Z,16.59
2019-06-08T06:34:59.107Z,16.71
2019-06-08T06:37:31.289Z,16.62
2019-06-08T06:40:04.480Z,16.66
2019-06-08T06:42:37.249Z,16.81
2019-06-08T06:45:10.136Z,16.89
2019-06-08T06:47:42.362Z,16.79
2019-06-08T06:50:15.121Z,16.80
2019-06-08T06:52:49.074Z,16.69
2019-06-08T06:55:25.311Z,16.87
2019-06-08T06:57:56.066Z,16.92
2019-06-08T07:00:32.378Z,17.01
2019-06-08T07:03:05.487Z,17.03
2019-06-08T07:05:38.333Z,17.13
2019-06-08T07:08:10.183Z,17.14
2019-06-08T07:10:44.599Z,17.21
2019-06-08T07:13:17.348Z,17.31
2019-06-08T07:15:54.522Z,17.36
2019-06-08T07:18:26.205Z,17.44
2019-06-08T07:20:59.860Z,17.51
2019-06-08T07:23:34.021Z,17.56
2019-06-08T07:26:05.408Z,17.48
2019-06-08T07:28:40.572Z,17.51
2019-06-08T07:31:13.582Z,17.46
2019-06-08T07:33:46.798Z,17.58
2019-06-08T07:36:20.463Z,17.23
2019-06-08T07:38:53.932Z,17.22
2019-06-08T07:41:28.361Z,17.23
2019-06-08T07:44:03.993Z,17.22
2019-06-08T07:46:39.653Z,17.13
2019-06-08T07:49:11.903Z,17.13
2019-06-08T07:51:58.815Z,17.30
2019-06-08T07:54:22.522Z,17.46
2019-06-08T07:56:57.050Z,17.34
2019-06-08T07:59:29.448Z,17.26
2019-06-08T08:02:02.906Z,17.22
2019-06-08T08:04:35.734Z,17.17
2019-06-08T08:07:08.727Z,17.44
2019-06-08T08:09:42.181Z,17.56
2019-06-08T08:12:15.344Z,17.41
2019-06-08T08:14:51.312Z,17.52
2019-06-08T08:17:23.388Z,17.50
2019-06-08T08:20:02.164Z,17.63
2019-06-08T08:22:39.436Z,17.72
2019-06-08T08:25:19.787Z,17.74
2019-06-08T08:27:55.862Z,17.59
2019-06-08T08:30:31.345Z,17.55
2019-06-08T08:33:03.653Z,17.49
2019-06-08T08:35:38.756Z,17.56
2019-06-08T08:38:18.174Z,17.56
2019-06-08T08:40:53.420Z,17.34
2019-06-08T08:43:28.132Z,17.18
2019-06-08T08:46:01.794Z,17.26
2019-06-08T08:48:34.858Z,17.13
2019-06-08T08:51:08.544Z,17.43
2019-06-08T08:53:41.183Z,17.22
2019-06-08T08:56:18.178Z,17.47
2019-06-08T08:58:52.543Z,17.43
2019-06-08T09:01:28.755Z,17.67
2019-06-08T09:04:05.008Z,17.84
2019-06-08T09:06:39.275Z,17.49
2019-06-08T09:09:12.076Z,17.52
2019-06-08T09:11:48.336Z,17.61
2019-06-08T09:14:18.996Z,17.54
2019-06-08T09:16:53.744Z,17.71
2019-06-08T09:19:27.940Z,17.49
2019-06-08T09:25:27.885Z,17.74
2019-06-08T09:28:04.632Z,17.78
2019-06-08T09:30:38.470Z,17.86
2019-06-08T09:33:14.931Z,17.94
2019-06-08T09:35:53.575Z,18.03
2019-06-08T09:38:28.798Z,17.91
2019-06-08T09:41:05.307Z,17.59
2019-06-08T09:43:39.177Z,17.67
2019-06-08T09:46:12.081Z,17.97
2019-06-08T09:48:44.157Z,17.97
2019-06-08T09:51:18.736Z,17.77
2019-06-08T09:53:54.243Z,17.74
2019-06-08T09:56:30.089Z,17.67
2019-06-08T09:59:08.373Z,17.95
2019-06-08T10:01:38.730Z,18.00
2019-06-08T10:04:12.713Z,18.20
2019-06-08T10:06:47.947Z,18.39
2019-06-08T10:09:23.808Z,18.25
2019-06-08T10:12:01.291Z,18.37
2019-06-08T10:14:32.183Z,18.22
2019-06-08T10:17:08.702Z,18.55
2019-06-08T10:19:40.433Z,18.65
2019-06-08T10:22:13.165Z,18.61
2019-06-08T10:24:48.832Z,18.70
2019-06-08T10:27:21.161Z,18.78
2019-06-08T10:29:53.091Z,18.82
2019-06-08T10:32:28.231Z,18.87
2019-06-08T10:35:07.312Z,19.21
2019-06-08T10:37:39.333Z,19.36
2019-06-08T10:40:13.555Z,19.45
2019-06-08T10:42:48.434Z,19.18
2019-06-08T10:45:23.327Z,19.44
2019-06-08T10:47:59.343Z,19.81
2019-06-08T10:50:33.196Z,19.77
2019-06-08T10:53:10.341Z,19.94
2019-06-08T10:55:40.827Z,19.82
2019-06-08T10:58:14.446Z,19.79
2019-06-08T11:00:48.114Z,19.66
2019-06-08T11:03:21.201Z,19.64
2019-06-08T11:05:54.592Z,19.51
2019-06-08T11:08:27.593Z,19.56
2019-06-08T11:11:01.195Z,19.76
2019-06-08T11:13:33.584Z,19.89
2019-06-08T11:16:06.591Z,19.77
2019-06-08T11:18:38.335Z,19.92
2019-06-08T11:21:48.216Z,19.87
2019-06-08T11:24:24.802Z,19.76
2019-06-08T11:26:57.802Z,19.62
2019-06-08T11:29:31.894Z,19.74
2019-06-08T11:32:04.283Z,19.64
2019-06-08T11:34:38.081Z,19.70
2019-06-08T11:37:13.574Z,19.72
2019-06-08T11:39:49.051Z,19.86
2019-06-08T11:42:24.910Z,19.93
2019-06-08T11:44:58.664Z,19.71
2019-06-08T11:47:30.975Z,19.65
2019-06-08T11:50:02.961Z,19.99
2019-06-08T11:52:38.882Z,19.98
2019-06-08T11:55:13.178Z,20.05
2019-06-08T11:57:44.654Z,19.87
2019-06-08T12:00:30.896Z,20.09
2019-06-08T12:03:02.254Z,20.15
2019-06-08T12:05:33.645Z,20.01
2019-06-08T12:08:06.441Z,20.00
2019-06-08T12:10:41.162Z,20.14
2019-06-08T12:13:17.746Z,20.40
2019-06-08T12:15:50.040Z,20.51
2019-06-08T12:18:23.940Z,20.72
2019-06-08T12:20:58.387Z,21.06
2019-06-08T12:23:30.182Z,21.10
2019-06-08T12:26:01.766Z,21.04
2019-06-08T12:28:34.926Z,21.20
2019-06-08T12:31:12.073Z,20.83
2019-06-08T12:33:41.960Z,21.03
2019-06-08T12:36:15.572Z,20.69
2019-06-08T12:38:48.677Z,21.05
2019-06-08T12:41:23.307Z,21.12
2019-06-08T12:43:58.976Z,20.88
2019-06-08T12:46:31.092Z,21.01
2019-06-08T12:49:02.973Z,21.46
2019-06-08T12:51:36.986Z,21.51
2019-06-08T12:54:12.704Z,21.36
2019-06-08T12:56:44.997Z,21.58
2019-06-08T12:59:22.452Z,21.56
2019-06-08T13:02:22.022Z,21.82
2019-06-08T13:04:57.160Z,21.94
2019-06-08T13:07:31.330Z,21.90
2019-06-08T13:10:04.096Z,22.00
2019-06-08T13:12:40.918Z,21.68
2019-06-08T13:15:14.460Z,21.74
2019-06-08T13:17:50.590Z,22.01
2019-06-08T13:20:22.581Z,22.29
2019-06-08T13:22:57.545Z,22.34
2019-06-08T13:25:39.689Z,21.92
2019-06-08T13:28:12.245Z,21.83
2019-06-08T13:30:58.178Z,21.74
2019-06-08T13:33:43.734Z,21.85
2019-06-08T13:36:19.688Z,21.96
2019-06-08T13:38:51.387Z,22.03
2019-06-08T13:41:29.873Z,22.00
2019-06-08T13:44:02.367Z,22.17
2019-06-08T13:46:52.425Z,22.18
2019-06-08T13:49:43.982Z,21.84
2019-06-08T13:52:34.669Z,21.88
2019-06-08T13:55:34.681Z,21.80
2019-06-08T13:57:50.991Z,21.63
2019-06-08T14:00:38.575Z,21.83
2019-06-08T14:03:13.719Z,21.87
2019-06-08T14:05:49.490Z,21.95
2019-06-08T14:08:40.195Z,21.84
2019-06-08T14:11:14.903Z,22.34
2019-06-08T14:13:48.124Z,22.59
2019-06-08T14:16:26.521Z,22.42
2019-06-08T14:19:04.027Z,22.11
2019-06-08T14:21:41.767Z,22.14
2019-06-08T14:24:14.445Z,22.02
2019-06-08T14:26:48.492Z,22.44
2019-06-08T14:29:22.965Z,22.61
2019-06-08T14:31:57.804Z,22.59
2019-06-08T14:34:31.277Z,22.26
2019-06-08T14:37:04.802Z,22.37
2019-06-08T14:39:38.201Z,22.16
2019-06-08T14:42:09.441Z,22.39
2019-06-08T14:44:41.237Z,22.44
2019-06-08T14:47:14.529Z,22.31
2019-06-08T14:49:48.976Z,22.21
2019-06-08T14:52:24.163Z,22.54
2019-06-08T14:54:58.665Z,22.59
2019-06-08T14:57:32.622Z,22.81
2019-06-08T15:00:09.669Z,22.70
2019-06-08T15:02:39.471Z,22.58
2019-06-08T15:05:11.758Z,22.54
2019-06-08T15:07:43.338Z,22.63
2019-06-08T15:10:18.040Z,22.94
2019-06-08T15:12:49.489Z,22.71
2019-06-08T15:15:23.617Z,22.85
2019-06-08T15:17:58.214Z,22.80
2019-06-08T15:20:32.960Z,22.61
2019-06-08T15:23:08.133Z,22.46
2019-06-08T15:25:38.916Z,22.49
2019-06-08T15:28:14.498Z,22.17
2019-06-08T15:30:46.909Z,22.62
2019-06-08T15:33:21.513Z,22.76
2019-06-08T15:35:54.269Z,22.93
2019-06-08T15:38:26.049Z,22.88
2019-06-08T15:40:58.854Z,22.60
2019-06-08T15:43:34.442Z,22.46
2019-06-08T15:46:04.926Z,22.17
2019-06-08T15:48:38.173Z,22.06
2019-06-08T15:51:10.299Z,21.91
2019-06-08T15:53:43.208Z,22.20
2019-06-08T15:56:18.699Z,22.12
2019-06-08T15:58:49.908Z,21.94
2019-06-08T16:01:29.390Z,22.12
2019-06-08T16:04:04.022Z,22.01
2019-06-08T16:06:36.390Z,22.07
2019-06-08T16:09:12.382Z,22.11
2019-06-08T16:11:46.469Z,22.17
2019-06-08T16:14:36.520Z,22.27
2019-06-08T16:17:07.922Z,22.43
2019-06-08T16:19:40.578Z,22.31
2019-06-08T16:22:14.315Z,22.38
2019-06-08T16:24:47.099Z,22.16
2019-06-08T16:27:20.087Z,22.20
2019-06-08T16:29:53.230Z,21.82
2019-06-08T16:32:25.133Z,21.87
2019-06-08T16:34:59.167Z,21.94
2019-06-08T16:37:33.507Z,21.91
2019-06-08T16:40:06.746Z,21.94
2019-06-08T16:42:41.185Z,21.92
2019-06-08T16:45:15.378Z,21.86
2019-06-08T16:47:49.483Z,21.91
2019-06-08T16:50:25.079Z,21.92
2019-06-08T16:52:59.043Z,21.88
2019-06-08T16:55:34.005Z,21.97
2019-06-08T16:58:07.145Z,21.92
2019-06-08T17:00:42.261Z,21.65
2019-06-08T17:03:17.747Z,21.63
2019-06-08T17:05:49.337Z,21.56
2019-06-08T17:08:21.092Z,21.42
2019-06-08T17:10:54.275Z,21.32
2019-06-08T17:13:26.340Z,21.00
2019-06-08T17:15:59.279Z,21.06
2019-06-08T17:18:32.348Z,20.99
2019-06-08T17:21:05.749Z,20.73
2019-06-08T17:23:38.465Z,20.60
2019-06-08T17:26:10.325Z,20.44
2019-06-08T17:28:42.904Z,20.44
2019-06-08T17:31:14.215Z,20.48
2019-06-08T17:33:46.350Z,20.43
2019-06-08T17:36:20.441Z,20.50
2019-06-08T17:38:52.510Z,20.34
2019-06-08T17:41:27.361Z,20.32
2019-06-08T17:44:00.716Z,20.32
2019-06-08T17:46:34.526Z,20.11
2019-06-08T17:49:08.767Z,20.05
2019-06-08T17:51:44.406Z,19.95
2019-06-08T17:54:15.793Z,20.12
2019-06-08T17:56:49.523Z,19.90
2019-06-08T17:59:23.491Z,19.96
2019-06-08T18:01:59.578Z,19.81
2019-06-08T18:04:33.504Z,19.79
2019-06-08T18:07:07.550Z,19.77
2019-06-08T18:09:42.277Z,19.71
2019-06-08T18:12:18.859Z,19.78
2019-06-08T18:14:51.582Z,19.81
2019-06-08T18:17:27.835Z,19.67
2019-06-08T18:20:02.036Z,19.76
2019-06-08T18:22:38.683Z,19.49
2019-06-08T18:25:09.873Z,19.46
2019-06-08T18:28:01.793Z,19.48
2019-06-08T18:30:20.013Z,19.59
2019-06-08T18:32:52.713Z,19.68
2019-06-08T18:35:27.760Z,19.52
2019-06-08T18:37:59.779Z,19.51
2019-06-08T18:40:32.733Z,19.49
2019-06-08T18:43:07.588Z,19.49
2019-06-08T18:45:42.432Z,19.47
2019-06-08T18:48:17.589Z,19.45
2019-06-08T18:50:51.464Z,19.23
2019-06-08T18:53:22.670Z,19.34
2019-06-08T18:55:57.971Z,19.36
2019-06-08T18:58:29.892Z,19.43
2019-06-08T19:01:03.893Z,19.23
2019-06-08T19:03:42.292Z,19.36
2019-06-08T19:06:12.252Z,19.42
2019-06-08T19:08:49.208Z,19.41
2019-06-08T19:11:20.097Z,19.30
2019-06-08T19:13:54.234Z,19.24
2019-06-08T19:16:29.484Z,19.28
2019-06-08T19:19:03.030Z,19.26
2019-06-08T19:21:37.667Z,19.27
2019-06-08T19:24:11.858Z,19.30
2019-06-08T19:26:45.955Z,19.35
2019-06-08T19:29:19.396Z,19.30
2019-06-08T19:31:53.905Z,19.39
2019-06-08T19:34:29.050Z,19.37
2019-06-08T19:37:00.988Z,19.30
2019-06-08T19:39:33.979Z,19.35
2019-06-08T19:42:07.990Z,19.24
2019-06-08T19:44:50.556Z,18.93
2019-06-08T19:47:17.624Z,18.93
2019-06-08T19:49:54.455Z,19.07
2019-06-08T19:52:24.972Z,19.09
2019-06-08T19:54:58.148Z,19.10
2019-06-08T19:57:30.013Z,18.93
2019-06-08T20:00:01.982Z,19.00
2019-06-08T20:02:36.302Z,18.92
2019-06-08T20:05:11.029Z,18.99
2019-06-08T20:07:44.928Z,19.03
2019-06-08T20:10:18.242Z,19.03
2019-06-08T20:12:51.638Z,18.88
2019-06-08T20:15:23.424Z,18.83
2019-06-08T20:17:57.494Z,18.67
2019-06-08T20:20:32.261Z,18.75
2019-06-08T20:23:18.113Z,18.81
2019-06-08T20:25:52.065Z,18.81
2019-06-08T20:28:28.303Z,18.79
2019-06-08T20:31:00.715Z,18.78
2019-06-08T20:33:34.335Z,18.63
2019-06-08T20:36:08.342Z,18.62
2019-06-08T20:38:43.741Z,18.69
2019-06-08T20:41:18.276Z,18.59
2019-06-08T20:43:53.661Z,18.66
2019-06-08T20:46:28.673Z,18.59
2019-06-08T20:49:02.351Z,18.62
2019-06-08T20:51:34.310Z,18.47
2019-06-08T20:54:10.012Z,18.52
2019-06-08T20:56:43.020Z,18.53
2019-06-08T20:59:29.227Z,18.43
2019-06-08T21:01:54.338Z,18.37
2019-06-08T21:04:27.662Z,18.39
2019-06-08T21:07:01.393Z,18.41
2019-06-08T21:09:36.965Z,18.39
2019-06-08T21:12:10.495Z,18.42
2019-06-08T21:14:45.242Z,18.43
2019-06-08T21:17:20.456Z,18.44
2019-06-08T21:19:55.619Z,18.32
2019-06-08T21:22:28.734Z,18.31
2019-06-08T21:25:01.493Z,18.25
2019-06-08T21:27:34.384Z,18.23
2019-06-08T21:30:19.897Z,18.17
2019-06-08T21:32:41.587Z,18.20
2019-06-08T21:35:18.188Z,18.20
2019-06-08T21:37:51.462Z,18.21
2019-06-08T21:40:28.126Z,18.06
2019-06-08T21:43:01.634Z,17.97
2019-06-08T21:45:34.190Z,17.96
2019-06-08T21:48:07.717Z,18.06
2019-06-08T21:50:41.641Z,18.08
2019-06-08T21:53:18.087Z,18.16
2019-06-08T21:55:50.687Z,18.17
2019-06-08T21:58:24.108Z,18.18
2019-06-08T22:00:59.148Z,18.10
2019-06-08T22:03:31.845Z,18.08
2019-06-08T22:06:07.849Z,18.13
2019-06-08T22:08:39.388Z,18.07
2019-06-08T22:11:14.517Z,17.99
2019-06-08T22:13:47.692Z,17.72
2019-06-08T22:16:22.621Z,17.75
2019-06-08T22:18:59.796Z,17.87
2019-06-08T22:21:31.948Z,17.90
2019-06-08T22:24:03.827Z,17.90
2019-06-08T22:26:36.974Z,17.97
2019-06-08T22:29:09.999Z,17.95
2019-06-08T22:31:43.742Z,17.89
2019-06-08T22:34:17.440Z,17.89
2019-06-08T22:36:52.586Z,17.94
2019-06-08T22:39:24.691Z,17.85
2019-06-08T22:42:01.193Z,17.85
2019-06-08T22:44:33.333Z,17.77
2019-06-08T22:47:08.095Z,17.81
2019-06-08T22:49:42.618Z,17.80
2019-06-08T22:52:18.494Z,17.78
2019-06-08T22:54:49.855Z,17.71
2019-06-08T22:57:21.646Z,17.23
2019-06-08T22:59:55.773Z,17.43
2019-06-08T23:02:27.895Z,17.47
2019-06-08T23:05:05.723Z,17.55
2019-06-08T23:07:39.597Z,17.33
2019-06-08T23:10:12.775Z,17.40
2019-06-08T23:12:47.229Z,17.52
2019-06-08T23:15:20.238Z,17.57
2019-06-08T23:17:52.856Z,17.61
2019-06-08T23:20:24.816Z,17.44
2019-06-08T23:22:58.645Z,17.48
2019-06-08T23:25:31.827Z,17.57
2019-06-08T23:28:09.718Z,17.62
2019-06-08T23:30:41.220Z,17.64
2019-06-08T23:33:14.789Z,17.61
2019-06-08T23:36:30.534Z,17.58
2019-06-08T23:38:22.920Z,17.18
2019-06-08T23:40:59.386Z,17.23
2019-06-08T23:43:31.937Z,17.39
2019-06-08T23:46:08.147Z,17.47
2019-06-08T23:48:42.008Z,17.47
2019-06-08T23:51:17.911Z,17.52
2019-06-08T23:53:52.900Z,17.36
2019-06-08T23:56:27.577Z,17.36
2019-06-08T23:59:03.774Z,17.42
